Time;durP1;ratioP1;P1;durP2;ratioP2;P2;SDS_P1;SDS_P2;PMS_P1;PMS_P2;Temp;Humidity;BMP_temperature;BMP_pressure;BME280_temperature;BME280_humidity;BME280_pressure;Samples;Min_cycle;Max_cycle;Signal;HPM_P1;HPM_P2
2022/06/24 00:02:09;;;;;;;;;5.25;4.00;;;;;25.08;49.18;100403.53;5099748;27;45630;-72
2022/06/24 00:04:34;;;;;;;;;4.75;4.25;;;;;25.10;49.02;100417.03;5101357;27;45357;-73
2022/06/24 00:07:00;;;;;;;;;6.00;5.00;;;;;25.10;49.67;100422.50;5100697;27;45318;-72
2022/06/24 00:09:28;;;;;;;;;4.00;4.00;;;;;25.06;49.81;100421.94;5101579;27;45450;-72
2022/06/24 00:12:03;;;;;;;;;3.25;3.00;;;;;24.99;49.70;100418.06;5100189;27;46482;-72
2022/06/24 00:14:28;;;;;;;;;5.50;5.50;;;;;24.96;49.68;100415.69;5094797;27;45430;-73
2022/06/24 00:17:00;;;;;;;;;2.25;2.25;;;;;24.96;50.47;100421.13;5106222;27;45350;-73
2022/06/24 00:19:27;;;;;;;;;4.00;2.75;;;;;24.96;50.36;100427.44;5101580;27;45436;-73
2022/06/24 00:22:07;;;;;;;;;4.00;4.00;;;;;24.95;50.54;100433.06;5100065;27;45691;-72
2022/06/24 00:24:34;;;;;;;;;4.50;4.00;;;;;24.90;50.28;100419.00;5101663;27;45356;-72
2022/06/24 00:26:59;;;;;;;;;4.50;3.00;;;;;24.88;50.56;100410.97;5100584;27;45292;-72
2022/06/24 00:29:31;;;;;;;;;3.50;3.50;;;;;24.89;50.92;100415.41;5101666;27;45603;-72
2022/06/24 00:32:02;;;;;;;;;4.25;3.75;;;;;24.88;50.94;100421.88;5098823;27;47728;-73
2022/06/24 00:34:28;;;;;;;;;4.00;4.00;;;;;24.88;50.66;100423.75;5090869;27;45520;-73
2022/06/24 00:36:53;;;;;;;;;5.00;5.00;;;;;24.78;51.16;100418.34;5099983;27;45439;-73
2022/06/24 00:39:18;;;;;;;;;6.50;5.00;;;;;24.78;50.99;100430.09;5098517;27;45455;-72
2022/06/24 00:41:50;;;;;;;;;3.00;3.00;;;;;24.75;50.57;100427.66;5097821;27;47526;-72
2022/06/24 00:44:20;;;;;;;;;3.50;3.50;;;;;24.77;50.65;100424.78;5101170;27;45639;-73
2022/06/24 00:46:46;;;;;;;;;5.25;5.00;;;;;24.75;50.91;100422.22;5098277;27;45352;-72
2022/06/24 00:49:14;;;;;;;;;4.00;3.75;;;;;24.74;51.03;100427.81;5101163;27;45255;-72
2022/06/24 00:51:41;;;;;;;;;5.25;5.25;;;;;24.65;51.32;100406.91;5091100;27;45269;-73
2022/06/24 00:54:12;;;;;;;;;2.25;2.25;;;;;24.65;50.86;100415.06;5101035;27;45541;-73
2022/06/24 00:56:38;;;;;;;;;3.75;3.75;;;;;24.68;51.18;100417.50;5101115;27;45427;-72
2022/06/24 00:59:08;;;;;;;;;5.00;5.00;;;;;24.64;51.28;100416.06;5100870;27;45456;-72
2022/06/24 01:01:36;;;;;;;;;4.00;4.00;;;;;24.67;50.78;100421.25;5098159;27;45700;-73
2022/06/24 01:04:03;;;;;;;;;3.75;2.75;;;;;24.60;51.02;100421.81;5099449;27;45242;-73
2022/06/24 01:06:30;;;;;;;;;4.00;3.75;;;;;24.62;50.96;100424.41;5101023;27;45265;-72
2022/06/24 01:08:56;;;;;;;;;3.25;3.25;;;;;24.59;50.67;100420.13;5100569;27;45419;-72
2022/06/24 01:11:29;;;;;;;;;3.00;3.00;;;;;24.60;50.48;100427.28;5099622;27;46181;-73
2022/06/24 01:13:56;;;;;;;;;4.75;3.75;;;;;24.53;50.59;100419.81;5095191;27;45487;-72
2022/06/24 01:16:25;;;;;;;;;4.00;4.00;;;;;24.53;51.03;100425.28;5100736;27;45374;-73
2022/06/24 01:18:58;;;;;;;;;5.00;4.00;;;;;24.49;50.70;100416.53;5100616;27;45192;-72
2022/06/24 01:21:43;;;;;;;;;3.00;3.00;;;;;24.49;50.77;100429.28;5098933;27;45411;-73
2022/06/24 01:24:17;;;;;;;;;4.00;3.50;;;;;24.46;50.85;100418.69;5098250;27;45425;-72
2022/06/24 01:26:54;;;;;;;;;4.00;3.75;;;;;24.46;51.08;100418.69;5100735;27;45415;-72
2022/06/24 01:29:21;;;;;;;;;4.00;4.00;;;;;24.46;51.13;100430.47;5099847;27;45360;-72
2022/06/24 01:31:48;;;;;;;;;3.50;2.00;;;;;24.46;51.02;100432.31;5099848;27;45328;-72
2022/06/24 01:34:15;;;;;;;;;4.00;4.00;;;;;24.35;51.56;100423.31;5099856;27;45711;-72
2022/06/24 01:36:40;;;;;;;;;6.25;5.50;;;;;24.41;51.46;100447.28;5101187;27;45330;-73
2022/06/24 01:39:07;;;;;;;;;4.00;4.00;;;;;24.41;51.01;100446.41;5107161;27;45503;-72
2022/06/24 01:41:33;;;;;;;;;3.00;3.00;;;;;24.38;51.75;100443.97;5105828;27;46201;-72
2022/06/24 01:43:58;;;;;;;;;2.00;2.00;;;;;24.37;51.99;100464.94;5107143;27;45400;-72
2022/06/24 01:46:24;;;;;;;;;5.00;3.00;;;;;24.33;53.34;100455.31;5106681;27;45373;-72
2022/06/24 01:48:50;;;;;;;;;6.50;4.50;;;;;24.22;54.54;100444.56;5107154;27;45654;-72
2022/06/24 01:51:19;;;;;;;;;5.00;5.00;;;;;24.25;54.83;100457.91;5097483;27;45317;-72
2022/06/24 01:53:44;;;;;;;;;5.25;5.25;;;;;24.23;56.10;100457.22;5106921;27;45426;-72
2022/06/24 01:56:10;;;;;;;;;4.00;4.00;;;;;24.11;56.96;100451.06;5107182;27;45219;-72
2022/06/24 01:58:35;;;;;;;;;4.25;4.25;;;;;24.07;56.99;100457.78;5106919;27;45646;-72
2022/06/24 02:01:01;;;;;;;;;5.75;5.00;;;;;24.00;57.13;100443.88;5103417;27;46095;-72
2022/06/24 02:03:28;;;;;;;;;4.00;4.00;;;;;23.93;57.27;100440.00;5105578;27;45392;-72
2022/06/24 02:05:57;;;;;;;;;3.25;3.25;;;;;23.85;57.51;100432.53;5106782;27;45375;-72
2022/06/24 02:08:23;;;;;;;;;5.25;4.00;;;;;23.89;58.03;100435.84;5106741;27;45167;-72
2022/06/24 02:13:33;;;;;;;;;4.75;4.75;;;;;23.81;58.42;100432.94;5106608;27;45384;-72
2022/06/24 02:16:01;;;;;;;;;6.50;5.25;;;;;23.75;59.13;100430.78;5106562;27;45462;-72
2022/06/24 02:18:28;;;;;;;;;6.00;3.75;;;;;23.72;58.97;100433.78;5106692;27;45404;-72
2022/06/24 02:20:54;;;;;;;;;3.50;3.00;;;;;23.67;58.67;100442.38;5100403;27;47123;-72
2022/06/24 02:23:20;;;;;;;;;4.50;4.50;;;;;23.59;58.92;100436.78;5106489;27;45336;-72
2022/06/24 02:25:49;;;;;;;;;3.00;3.00;;;;;23.62;59.25;100458.31;5106867;27;45275;-72
2022/06/24 02:28:15;;;;;;;;;5.00;5.00;;;;;23.59;59.40;100464.91;5106742;27;45450;-73
2022/06/24 02:30:42;;;;;;;;;3.25;3.25;;;;;23.52;58.67;100441.09;5105604;27;45495;-73
2022/06/24 02:33:08;;;;;;;;;6.00;5.00;;;;;23.56;59.36;100439.81;5106422;27;45614;-73
2022/06/24 02:35:33;;;;;;;;;3.25;3.25;;;;;23.49;59.37;100421.31;5106635;27;45300;-73
2022/06/24 02:37:59;;;;;;;;;2.75;2.50;;;;;23.42;59.37;100400.22;5104888;27;45422;-74
2022/06/24 02:43:14;;;;;;;;;3.50;3.50;;;;;23.31;59.95;100401.22;5106045;27;45360;-73
2022/06/24 02:45:40;;;;;;;;;1.25;1.25;;;;;23.23;59.59;100404.63;5098042;27;45345;-73
2022/06/24 02:48:07;;;;;;;;;4.00;4.00;;;;;23.23;59.80;100412.78;5105479;27;45391;-73
2022/06/24 02:50:38;;;;;;;;;3.75;3.75;;;;;23.17;59.86;100412.47;5098722;27;46736;-73
2022/06/24 02:53:03;;;;;;;;;5.00;3.75;;;;;23.08;59.92;100397.84;5102663;27;45593;-73
2022/06/24 02:55:28;;;;;;;;;5.75;5.75;;;;;23.03;60.70;100391.94;5103315;27;45345;-73
2022/06/24 02:57:54;;;;;;;;;4.75;4.50;;;;;22.99;60.08;100390.47;5102594;27;47137;-73
2022/06/24 03:00:19;;;;;;;;;4.00;4.00;;;;;22.84;60.83;100390.88;5101183;27;46389;-73
2022/06/24 03:02:45;;;;;;;;;4.00;2.25;;;;;22.93;61.14;100402.78;5099313;27;45342;-73
2022/06/24 03:05:10;;;;;;;;;3.00;3.00;;;;;22.90;60.93;100398.50;5097259;27;45313;-73
2022/06/24 03:07:35;;;;;;;;;3.00;3.00;;;;;22.84;60.90;100401.75;5102676;27;45651;-73
2022/06/24 03:10:01;;;;;;;;;4.25;3.75;;;;;22.83;61.27;100396.44;5101932;27;45341;-73
2022/06/24 03:12:26;;;;;;;;;4.00;3.50;;;;;22.83;61.14;100402.75;5101523;27;45438;-73
2022/06/24 03:14:51;;;;;;;;;4.00;4.00;;;;;22.72;61.27;100390.13;5102399;27;45329;-73
2022/06/24 03:17:17;;;;;;;;;3.25;3.25;;;;;22.79;61.49;100397.72;5102310;27;47521;-73
2022/06/24 03:19:42;;;;;;;;;3.50;3.50;;;;;22.78;61.08;100390.56;5101285;27;47110;-73
2022/06/24 03:22:07;;;;;;;;;4.00;4.00;;;;;22.72;61.96;100375.63;5102348;27;45486;-73
2022/06/24 03:24:33;;;;;;;;;5.50;4.50;;;;;22.68;61.57;100371.47;5102632;27;45432;-73
2022/06/24 03:26:58;;;;;;;;;4.75;4.25;;;;;22.70;62.04;100381.25;5102404;27;45475;-73
2022/06/24 03:29:23;;;;;;;;;4.00;4.00;;;;;22.69;61.93;100384.94;5102227;27;49065;-73
2022/06/24 03:31:49;;;;;;;;;5.25;4.50;;;;;22.74;62.36;100395.44;5101417;27;45431;-73
2022/06/24 03:34:14;;;;;;;;;5.50;5.50;;;;;22.66;62.37;100384.38;5100975;27;45358;-73
2022/06/24 03:36:39;;;;;;;;;5.75;5.75;;;;;22.64;62.37;100398.09;5102017;27;45333;-73
2022/06/24 03:39:04;;;;;;;;;4.25;4.25;;;;;22.63;62.24;100401.81;5101729;27;46144;-73
2022/06/24 03:41:30;;;;;;;;;5.00;5.00;;;;;22.54;62.17;100392.59;5099612;27;48263;-73
2022/06/24 03:43:55;;;;;;;;;6.75;3.75;;;;;22.52;62.60;100400.03;5101424;27;50495;-73
2022/06/24 03:46:20;;;;;;;;;6.50;4.00;;;;;22.54;62.50;100397.19;5102081;27;45382;-73
2022/06/24 03:48:46;;;;;;;;;6.25;5.50;;;;;22.53;62.89;100390.03;5101519;27;49715;-73
2022/06/24 03:51:11;;;;;;;;;3.00;3.00;;;;;22.51;63.13;100383.88;5100566;27;45213;-73
2022/06/24 03:53:36;;;;;;;;;4.50;4.50;;;;;22.48;63.13;100384.97;5102099;27;45506;-73
2022/06/24 03:56:02;;;;;;;;;6.00;6.00;;;;;22.52;62.86;100382.84;5100708;27;45836;-73
2022/06/24 03:58:27;;;;;;;;;4.25;4.25;;;;;22.49;63.21;100386.72;5100572;27;46267;-73
2022/06/24 04:01:00;;;;;;;;;5.00;4.50;;;;;22.41;62.85;100367.50;5097743;27;45586;-73
2022/06/24 04:03:25;;;;;;;;;6.00;5.00;;;;;22.46;63.05;100375.25;5097457;27;45500;-73
2022/06/24 04:05:51;;;;;;;;;4.25;4.25;;;;;22.44;63.28;100380.81;5100573;27;46528;-73
2022/06/24 04:08:16;;;;;;;;;7.00;4.75;;;;;22.35;63.46;100374.34;5101482;27;45424;-73
2022/06/24 04:10:41;;;;;;;;;5.00;5.00;;;;;22.31;63.03;100374.75;5100488;27;50982;-73
2022/06/24 04:13:07;;;;;;;;;6.25;5.25;;;;;22.34;62.93;100388.91;5096247;27;53155;-73
2022/06/24 04:15:32;;;;;;;;;5.75;5.00;;;;;22.25;63.62;100375.22;5099554;27;45692;-73
2022/06/24 04:17:58;;;;;;;;;6.25;6.25;;;;;22.26;63.16;100385.97;5101192;27;45327;-73
2022/06/24 04:20:23;;;;;;;;;6.25;5.00;;;;;22.23;63.35;100382.66;5100057;27;45369;-73
2022/06/24 04:22:48;;;;;;;;;5.75;5.75;;;;;22.23;63.43;100393.53;5101451;27;45381;-73
2022/06/24 04:25:14;;;;;;;;;4.75;4.75;;;;;22.21;63.32;100389.09;5101560;27;45301;-73
2022/06/24 04:27:40;;;;;;;;;4.50;4.50;;;;;22.14;63.66;100385.19;5100053;27;47827;-73
2022/06/24 04:30:09;;;;;;;;;7.25;6.00;;;;;22.14;63.60;100389.78;5100351;27;45452;-73
2022/06/24 04:32:34;;;;;;;;;7.75;5.00;;;;;22.07;63.92;100396.72;5101483;27;45394;-73
2022/06/24 04:35:00;;;;;;;;;4.00;4.00;;;;;22.04;63.67;100399.72;5101076;27;45257;-73
2022/06/24 04:37:25;;;;;;;;;4.50;4.50;;;;;22.06;64.09;100404.00;5100172;27;45330;-73
2022/06/24 04:39:51;;;;;;;;;6.50;6.50;;;;;22.07;64.04;100404.88;5100987;27;45307;-73
2022/06/24 04:42:16;;;;;;;;;5.00;5.00;;;;;21.96;64.07;100392.22;5101040;27;45219;-73
2022/06/24 04:44:42;;;;;;;;;4.00;3.75;;;;;22.04;64.54;100402.44;5100963;27;45242;-73
2022/06/24 04:47:07;;;;;;;;;6.50;4.25;;;;;21.99;64.23;100405.56;5100735;27;45561;-73
2022/06/24 04:49:33;;;;;;;;;5.75;5.75;;;;;22.04;64.22;100410.59;5099936;27;45404;-73
2022/06/24 04:51:58;;;;;;;;;6.75;6.75;;;;;22.01;64.59;100392.69;5100957;27;45437;-74
2022/06/24 04:54:24;;;;;;;;;5.75;5.75;;;;;22.06;64.06;100401.31;5100987;27;45161;-74
2022/06/24 04:56:50;;;;;;;;;3.50;3.00;;;;;22.00;64.48;100382.78;5101066;27;45844;-73
2022/06/24 04:59:15;;;;;;;;;5.25;5.25;;;;;21.95;64.20;100382.34;5099980;27;45164;-73
2022/06/24 05:01:41;;;;;;;;;5.25;5.00;;;;;22.03;64.60;100398.84;5099169;27;45388;-74
2022/06/24 05:04:06;;;;;;;;;5.00;5.00;;;;;21.95;64.64;100385.94;5092035;27;45417;-71
2022/06/24 05:06:31;;;;;;;;;6.50;6.50;;;;;21.99;64.00;100403.69;5093488;27;47048;-72
2022/06/24 05:08:57;;;;;;;;;5.25;5.00;;;;;22.03;64.74;100404.28;5097352;27;45385;-71
2022/06/24 05:11:23;;;;;;;;;6.50;6.50;;;;;21.99;64.61;100403.69;5100329;27;45935;-72
2022/06/24 05:13:48;;;;;;;;;6.50;5.50;;;;;21.96;64.70;100403.09;5095432;27;45579;-72
2022/06/24 05:16:14;;;;;;;;;5.00;5.00;;;;;21.97;64.24;100407.53;5095149;27;45471;-72
2022/06/24 05:18:40;;;;;;;;;7.75;7.25;;;;;21.89;64.48;100393.75;5102645;27;45491;-71
2022/06/24 05:21:05;;;;;;;;;5.75;5.75;;;;;21.90;64.40;100395.44;5100362;27;45426;-71
2022/06/24 05:23:31;;;;;;;;;8.00;8.00;;;;;21.85;65.06;100395.84;5098163;27;45306;-75
2022/06/24 05:25:57;;;;;;;;;5.25;5.25;;;;;21.89;65.07;100404.63;5100624;27;46066;-74
2022/06/24 05:28:23;;;;;;;;;6.25;6.25;;;;;21.88;64.95;100405.59;5097830;27;45742;-74
2022/06/24 05:30:57;;;;;;;;;6.00;6.00;;;;;21.77;64.58;100393.78;5097513;27;45381;-74
2022/06/24 05:33:23;;;;;;;;;5.75;5.75;;;;;21.82;64.59;100398.84;5097958;27;45352;-74
2022/06/24 05:35:54;;;;;;;;;8.00;7.50;;;;;21.83;65.08;100403.25;5099032;27;47400;-74
2022/06/24 05:38:23;;;;;;;;;8.00;6.50;;;;;21.80;64.74;100404.41;5098465;27;45531;-74
2022/06/24 05:40:50;;;;;;;;;5.75;5.75;;;;;21.74;64.90;100396.78;5095878;27;47102;-74
2022/06/24 05:43:16;;;;;;;;;6.50;6.00;;;;;21.67;64.78;100390.13;5097675;27;45236;-74
2022/06/24 05:45:41;;;;;;;;;7.00;6.75;;;;;21.73;65.02;100407.75;5098304;27;46268;-71
2022/06/24 05:48:06;;;;;;;;;6.50;6.50;;;;;21.68;64.95;100393.72;5091426;27;45335;-71
2022/06/24 05:50:32;;;;;;;;;11.00;8.50;;;;;21.61;65.17;100396.09;5095529;27;45455;-71
2022/06/24 05:55:42;;;;;;;;;8.25;6.25;;;;;21.54;65.35;100392.16;5093891;27;45559;-71
2022/06/24 05:58:08;;;;;;;;;6.75;5.75;;;;;21.50;65.43;100380.72;5095559;27;45676;-73
2022/06/24 06:00:33;;;;;;;;;8.50;6.00;;;;;21.65;64.76;100409.28;5099325;27;45407;-71
2022/06/24 06:02:58;;;;;;;;;8.50;5.75;;;;;21.64;64.97;100407.53;5090910;27;45528;-71
2022/06/24 06:05:23;;;;;;;;;6.00;5.25;;;;;21.54;65.13;100392.16;5092920;27;45431;-78
2022/06/24 06:07:49;;;;;;;;;9.25;6.50;;;;;21.40;65.17;100383.28;5098270;27;45494;-73
2022/06/24 06:10:14;;;;;;;;;6.00;6.00;;;;;21.61;64.99;100418.66;5096383;27;45374;-71
2022/06/24 06:12:39;;;;;;;;;5.50;5.00;;;;;21.49;64.98;100399.84;5097831;27;45339;-73
2022/06/24 06:15:06;;;;;;;;;6.00;6.00;;;;;21.62;65.34;100425.84;5094991;27;46195;-73
2022/06/24 06:17:31;;;;;;;;;6.00;6.00;;;;;21.60;64.93;100435.97;5098772;27;45271;-73
2022/06/24 06:19:56;;;;;;;;;6.50;5.25;;;;;21.62;64.96;100438.56;5099561;27;45733;-73
2022/06/24 06:22:22;;;;;;;;;5.00;5.00;;;;;21.61;65.22;100440.38;5099911;27;45313;-73
2022/06/24 06:24:47;;;;;;;;;6.00;6.00;;;;;21.56;65.10;100425.47;5101632;27;45303;-73
2022/06/24 06:27:12;;;;;;;;;5.50;5.50;;;;;21.55;64.77;100423.75;5103272;27;45564;-73
2022/06/24 06:29:38;;;;;;;;;6.75;6.00;;;;;21.61;64.79;100431.38;5103468;27;45223;-73
2022/06/24 06:32:04;;;;;;;;;5.00;5.00;;;;;21.56;64.84;100420.91;5103232;27;50179;-72
2022/06/24 06:34:30;;;;;;;;;6.00;6.00;;;;;21.68;65.37;100440.75;5102961;27;45333;-71
2022/06/24 06:36:55;;;;;;;;;6.75;5.75;;;;;21.48;65.19;100401.69;5103212;27;45169;-71
2022/06/24 06:39:20;;;;;;;;;6.00;5.00;;;;;21.68;64.78;100437.16;5103137;27;45389;-72
2022/06/24 06:41:46;;;;;;;;;4.00;4.00;;;;;21.65;65.23;100436.44;5101619;27;45225;-73
2022/06/24 06:44:13;;;;;;;;;5.25;5.25;;;;;21.57;65.37;100419.94;5103093;27;45386;-73
2022/06/24 06:46:39;;;;;;;;;4.25;3.25;;;;;21.54;65.11;100422.03;5103039;27;45344;-73
2022/06/24 06:49:04;;;;;;;;;6.25;5.50;;;;;21.51;65.02;100416.88;5102824;27;45380;-73
2022/06/24 06:51:30;;;;;;;;;6.00;4.25;;;;;21.69;65.18;100442.47;5102927;27;45456;-73
2022/06/24 06:53:55;;;;;;;;;4.50;4.50;;;;;21.71;65.45;100448.63;5102571;27;51826;-73
2022/06/24 06:56:20;;;;;;;;;6.00;5.50;;;;;21.67;64.88;100441.75;5102961;27;45356;-72
2022/06/24 06:58:46;;;;;;;;;5.00;5.00;;;;;21.67;64.91;100439.03;5103067;27;45397;-69
2022/06/24 07:01:11;;;;;;;;;6.00;6.00;;;;;21.71;65.07;100448.63;5098403;27;45215;-69
2022/06/24 07:03:36;;;;;;;;;5.25;4.75;;;;;21.71;65.11;100442.34;5093504;27;46280;-69
2022/06/24 07:06:02;;;;;;;;;5.00;5.00;;;;;21.57;65.59;100417.22;5102945;27;45264;-73
2022/06/24 07:08:27;;;;;;;;;5.75;4.75;;;;;21.68;65.25;100438.03;5101470;27;45424;-73
2022/06/24 07:10:52;;;;;;;;;6.00;6.00;;;;;21.69;65.17;100434.31;5102738;27;45325;-73
2022/06/24 07:13:19;;;;;;;;;3.75;3.75;;;;;21.73;65.54;100443.06;5098280;27;45412;-72
2022/06/24 07:15:45;;;;;;;;;8.00;5.00;;;;;21.73;65.54;100429.50;5100172;27;45253;-71
2022/06/24 07:18:10;;;;;;;;;5.25;5.00;;;;;21.59;64.98;100411.66;5110900;27;45243;-72
2022/06/24 07:20:35;;;;;;;;;5.50;5.50;;;;;21.71;65.08;100434.19;5097698;27;45173;-72
2022/06/24 07:23:01;;;;;;;;;5.25;4.75;;;;;21.71;64.69;100426.91;5092051;27;47280;-73
2022/06/24 07:25:27;;;;;;;;;4.00;4.00;;;;;21.61;64.82;100415.09;5100051;27;45585;-73
2022/06/24 07:27:52;;;;;;;;;5.00;5.00;;;;;21.70;64.77;100424.31;5099499;27;45699;-74
2022/06/24 07:30:17;;;;;;;;;4.00;4.00;;;;;21.69;64.50;100428.03;5101996;27;45330;-74
2022/06/24 07:32:46;;;;;;;;;4.50;4.50;;;;;21.69;64.85;100437.03;5102004;27;46216;-74
2022/06/24 07:35:14;;;;;;;;;5.75;4.50;;;;;21.71;64.78;100436.91;5101906;27;45388;-74
2022/06/24 07:37:39;;;;;;;;;3.75;3.75;;;;;21.71;64.83;100432.34;5102420;27;45183;-74
2022/06/24 07:40:06;;;;;;;;;5.75;4.25;;;;;21.71;64.27;100424.19;5100310;27;45206;-74
2022/06/24 07:42:31;;;;;;;;;4.00;4.00;;;;;21.83;64.13;100436.75;5102121;27;46263;-74
2022/06/24 07:44:56;;;;;;;;;5.00;5.00;;;;;21.84;65.35;100426.75;5101947;27;45439;-74
2022/06/24 07:47:22;;;;;;;;;5.00;5.00;;;;;21.85;64.47;100417.56;5102355;27;45597;-75
2022/06/24 07:49:47;;;;;;;;;5.50;5.00;;;;;21.89;63.96;100415.50;5081118;27;46109;-74
2022/06/24 07:52:12;;;;;;;;;4.00;4.00;;;;;21.92;64.32;100413.38;5091567;27;46583;-72
2022/06/24 07:54:38;;;;;;;;;3.75;3.75;;;;;22.07;63.93;100427.50;5101186;27;45372;-74
2022/06/24 07:57:04;;;;;;;;;3.25;3.25;;;;;22.11;63.70;100420.78;5088812;27;45316;-71
2022/06/24 07:59:38;;;;;;;;;5.00;5.00;;;;;22.13;63.52;100407.06;5097647;27;45446;-70
2022/06/24 08:02:07;;;;;;;;;5.00;3.00;;;;;22.22;63.62;100414.44;5089935;27;45380;-73
2022/06/24 08:04:32;;;;;;;;;5.50;4.25;;;;;22.25;63.97;100413.28;5100330;27;45240;-75
2022/06/24 08:06:58;;;;;;;;;5.00;5.00;;;;;22.33;63.66;100416.25;5100428;27;45370;-75
2022/06/24 08:09:27;;;;;;;;;5.00;4.50;;;;;22.39;62.68;100424.72;5101698;27;45525;-75
2022/06/24 08:11:53;;;;;;;;;5.00;5.00;;;;;22.39;62.54;100413.00;5101638;27;46053;-75
2022/06/24 08:14:19;;;;;;;;;4.25;4.25;;;;;22.42;62.86;100423.63;5099692;27;46176;-75
2022/06/24 08:16:44;;;;;;;;;6.25;5.00;;;;;22.46;62.10;100426.91;5101756;27;45420;-75
2022/06/24 08:19:10;;;;;;;;;4.50;4.50;;;;;22.36;62.30;100416.84;5101492;27;45367;-75
2022/06/24 08:21:36;;;;;;;;;5.00;5.00;;;;;22.41;62.34;100421.88;5101222;27;45551;-75
2022/06/24 08:24:06;;;;;;;;;3.75;3.75;;;;;22.45;61.97;100427.91;5101450;27;45253;-74
2022/06/24 08:26:33;;;;;;;;;3.50;3.50;;;;;22.38;62.58;100420.28;5095917;27;45279;-73
2022/06/24 08:28:59;;;;;;;;;4.50;4.50;;;;;22.52;62.23;100427.25;5101163;27;45409;-70
2022/06/24 08:31:24;;;;;;;;;5.75;4.00;;;;;22.45;61.11;100420.59;5100512;27;45927;-68
2022/06/24 08:33:49;;;;;;;;;4.00;3.50;;;;;22.49;61.53;100432.09;5100744;27;45388;-69
2022/06/24 08:36:15;;;;;;;;;4.75;4.75;;;;;22.43;61.07;100413.59;5100091;27;45240;-70
2022/06/24 08:38:40;;;;;;;;;4.00;3.00;;;;;22.50;60.88;100422.91;5100752;27;45350;-70
2022/06/24 08:41:06;;;;;;;;;3.00;3.00;;;;;22.53;60.24;100422.66;5100889;27;45405;-70
2022/06/24 08:43:35;;;;;;;;;4.25;3.50;;;;;22.55;60.43;100420.66;5101438;27;45277;-69
2022/06/24 08:46:02;;;;;;;;;3.50;3.00;;;;;22.39;60.19;100399.41;5101022;27;45415;-70
2022/06/24 08:48:28;;;;;;;;;3.75;3.00;;;;;22.49;59.92;100407.63;5100270;27;45457;-69
2022/06/24 08:50:54;;;;;;;;;3.00;3.00;;;;;22.51;59.63;100401.03;5099564;27;47266;-69
2022/06/24 08:53:26;;;;;;;;;7.00;4.00;;;;;22.53;59.88;100401.75;5096306;27;45623;-69
2022/06/24 08:55:52;;;;;;;;;4.25;3.75;;;;;22.63;59.63;100406.38;5096202;27;45486;-69
2022/06/24 08:58:18;;;;;;;;;4.00;2.00;;;;;22.60;60.58;100395.78;5101092;27;45517;-69
2022/06/24 09:00:44;;;;;;;;;2.75;2.75;;;;;22.62;59.71;100394.66;5099739;27;45526;-68
2022/06/24 09:03:10;;;;;;;;;2.25;2.00;;;;;22.64;60.00;100383.66;5091867;27;45630;-69
2022/06/24 09:05:36;;;;;;;;;3.50;3.50;;;;;22.74;59.70;100390.84;5100857;27;45305;-69
2022/06/24 09:08:09;;;;;;;;;2.75;2.75;;;;;22.75;58.81;100386.25;5100949;27;45313;-68
2022/06/24 09:10:36;;;;;;;;;2.00;2.00;;;;;22.66;58.30;100368.88;5082393;27;48387;-67
2022/06/24 09:13:01;;;;;;;;;4.75;4.00;;;;;22.75;58.86;100378.97;5095019;27;45210;-69
2022/06/24 09:15:27;;;;;;;;;3.00;2.50;;;;;22.74;58.65;100360.06;5094661;27;45313;-69
2022/06/24 09:17:54;;;;;;;;;3.00;2.75;;;;;22.80;58.54;100367.66;5100638;27;45602;-71
2022/06/24 09:20:25;;;;;;;;;2.00;2.00;;;;;22.85;59.17;100373.53;5100406;27;45484;-70
2022/06/24 09:23:01;;;;;;;;;3.25;3.25;;;;;22.87;59.17;100379.72;5100534;27;45436;-70
2022/06/24 09:25:27;;;;;;;;;4.00;2.75;;;;;22.82;58.42;100362.06;5099452;27;45407;-69
2022/06/24 09:27:52;;;;;;;;;3.00;3.00;;;;;22.92;58.07;100374.72;5100408;27;45388;-69
2022/06/24 09:30:18;;;;;;;;;2.00;2.00;;;;;22.91;57.74;100363.97;5099940;27;45435;-69
2022/06/24 09:32:51;;;;;;;;;2.00;2.00;;;;;23.00;57.59;100365.00;5100440;27;45274;-69
2022/06/24 09:35:16;;;;;;;;;3.00;3.00;;;;;23.02;56.96;100357.53;5100415;27;45287;-69
2022/06/24 09:37:44;;;;;;;;;2.00;2.00;;;;;23.05;57.56;100351.81;5095562;27;45326;-69
2022/06/24 09:40:25;;;;;;;;;1.50;1.50;;;;;22.98;56.58;100329.75;5099737;27;46780;-69
2022/06/24 09:43:20;;;;;;;;;4.00;2.00;;;;;23.06;57.31;100337.22;5100229;27;45402;-70
2022/06/24 09:45:48;;;;;;;;;2.00;1.00;;;;;22.98;56.90;100320.72;5098235;27;45413;-69
2022/06/24 09:48:33;;;;;;;;;3.00;3.00;;;;;23.15;56.98;100350.00;5100111;27;45281;-69
2022/06/24 09:51:04;;;;;;;;;3.00;3.00;;;;;23.20;56.54;100344.16;5100002;27;46332;-69
2022/06/24 09:53:37;;;;;;;;;1.25;1.25;;;;;23.15;57.03;100343.72;5100178;27;45335;-69
2022/06/24 09:56:07;;;;;;;;;2.50;1.25;;;;;23.26;56.36;100349.03;5100427;27;45342;-69
2022/06/24 09:58:37;;;;;;;;;1.00;1.00;;;;;23.25;55.82;100344.56;5101773;27;45210;-70
2022/06/24 10:01:03;;;;;;;;;1.00;1.00;;;;;23.33;55.50;100341.16;5100099;27;45354;-69
2022/06/24 10:03:29;;;;;;;;;2.25;1.75;;;;;23.36;55.17;100338.16;5093265;27;45378;-69
2022/06/24 10:06:01;;;;;;;;;0.25;0.25;;;;;23.30;56.07;100329.56;5103876;27;45315;-69
2022/06/24 10:08:30;;;;;;;;;1.00;1.00;;;;;23.44;55.97;100346.47;5103480;27;45196;-69
2022/06/24 10:10:58;;;;;;;;;1.50;1.50;;;;;23.42;54.93;100346.63;5103489;27;46241;-70
2022/06/24 10:13:32;;;;;;;;;1.25;1.25;;;;;23.48;54.83;100346.03;5094182;27;45266;-69
2022/06/24 10:16:01;;;;;;;;;3.00;1.00;;;;;23.46;54.28;100334.41;5103236;27;45345;-69
2022/06/24 10:18:34;;;;;;;;;1.00;1.00;;;;;23.38;54.86;100330.69;5103100;27;45492;-69
2022/06/24 10:21:02;;;;;;;;;1.75;0.25;;;;;23.51;54.39;100354.94;5093685;27;47050;-69
2022/06/24 10:23:46;;;;;;;;;1.50;1.25;;;;;23.52;54.24;100346.59;5103064;27;45393;-69
2022/06/24 10:26:29;;;;;;;;;1.00;1.00;;;;;23.55;55.05;100349.03;5103578;27;45525;-69
2022/06/24 10:29:16;;;;;;;;;2.00;2.00;;;;;23.57;54.36;100354.34;5103297;27;45275;-69
2022/06/24 10:31:42;;;;;;;;;2.25;1.25;;;;;23.59;54.36;100361.38;5101345;27;46269;-69
2022/06/24 10:34:08;;;;;;;;;3.00;1.50;;;;;23.60;53.73;100357.63;5103450;27;45333;-68
2022/06/24 10:36:33;;;;;;;;;1.00;1.00;;;;;23.60;53.87;100341.28;5101782;27;45381;-69
2022/06/24 10:39:10;;;;;;;;;1.00;1.00;;;;;23.59;53.53;100331.41;5101881;27;45609;-69
2022/06/24 10:41:37;;;;;;;;;1.75;1.75;;;;;23.64;54.01;100336.44;5102486;27;45515;-69
2022/06/24 10:44:25;;;;;;;;;2.25;2.25;;;;;23.59;53.77;100327.81;5102746;27;45333;-69
2022/06/24 10:47:05;;;;;;;;;1.00;0.25;;;;;23.68;54.23;100338.72;5090953;27;45222;-69
2022/06/24 10:49:52;;;;;;;;;3.00;2.50;;;;;23.73;54.39;100335.56;5102861;27;45497;-69
2022/06/24 10:52:39;;;;;;;;;1.00;1.00;;;;;23.76;53.58;100327.09;5098273;27;46473;-69
2022/06/24 10:55:29;;;;;;;;;1.00;1.00;;;;;23.80;53.82;100328.50;5092175;27;45322;-69
2022/06/24 10:57:55;;;;;;;;;1.00;1.00;;;;;23.79;53.90;100331.38;5102511;27;45376;-69
2022/06/24 11:00:26;;;;;;;;;1.25;1.25;;;;;23.82;53.87;100333.84;5102531;27;45528;-69
2022/06/24 11:02:56;;;;;;;;;1.00;1.00;;;;;23.88;53.62;100324.25;5087017;27;47544;-69
2022/06/24 11:05:26;;;;;;;;;1.00;1.00;;;;;23.84;53.24;100312.78;5095741;27;45753;-68
2022/06/24 11:07:52;;;;;;;;;1.50;1.50;;;;;23.90;53.23;100330.41;5102460;27;45431;-76
2022/06/24 11:10:21;;;;;;;;;1.25;1.25;;;;;23.85;52.42;100320.78;5102077;27;45317;-72
2022/06/24 11:12:52;;;;;;;;;0.00;0.00;;;;;23.88;52.29;100336.00;5089043;27;46425;-74
2022/06/24 11:15:17;;;;;;;;;4.00;2.00;;;;;23.84;52.68;100342.75;5096289;27;45333;-74
2022/06/24 11:17:43;;;;;;;;;1.00;1.00;;;;;23.80;52.27;100333.09;5102898;27;45320;-73
2022/06/24 11:20:11;;;;;;;;;2.25;1.50;;;;;23.85;52.56;100330.84;5102639;27;45549;-73
2022/06/24 11:22:43;;;;;;;;;2.00;2.00;;;;;23.85;52.56;100330.84;5102661;27;45446;-74
2022/06/24 11:25:12;;;;;;;;;0.75;0.50;;;;;23.86;52.77;100327.13;5102532;27;45475;-74
2022/06/24 11:27:37;;;;;;;;;1.00;1.00;;;;;23.83;52.99;100316.50;5102847;27;45286;-73
2022/06/24 11:30:04;;;;;;;;;1.00;1.00;;;;;23.88;53.22;100314.19;5102050;27;45259;-73
2022/06/24 11:32:29;;;;;;;;;1.25;1.00;;;;;23.89;52.29;100317.78;5102316;27;45300;-73
2022/06/24 11:34:54;;;;;;;;;1.25;1.25;;;;;23.92;52.16;100309.31;5087467;27;45760;-73